sensor_id;sensor_type;location;lat;lon;timestamp;temperature;humidity
78448;SHT31;67742;51.972;5.682;2024-01-27T00:01:00;7.7;63.2
78448;SHT31;67742;51.972;5.682;2024-01-27T00:03:28;7.7;63.1
78448;SHT31;67742;51.972;5.682;2024-01-27T00:05:57;7.7;63.1
78448;SHT31;67742;51.972;5.682;2024-01-27T00:08:25;7.7;63.2
78448;SHT31;67742;51.972;5.682;2024-01-27T00:10:54;7.6;63.2
78448;SHT31;67742;51.972;5.682;2024-01-27T00:13:22;7.6;63.2
78448;SHT31;67742;51.972;5.682;2024-01-27T00:15:51;7.6;63.5
78448;SHT31;67742;51.972;5.682;2024-01-27T00:18:20;7.6;63.5
78448;SHT31;67742;51.972;5.682;2024-01-27T00:20:49;7.6;63.6
78448;SHT31;67742;51.972;5.682;2024-01-27T00:23:18;7.6;63.6
78448;SHT31;67742;51.972;5.682;2024-01-27T00:25:46;7.6;63.6
78448;SHT31;67742;51.972;5.682;2024-01-27T00:28:15;7.6;63.5
78448;SHT31;67742;51.972;5.682;2024-01-27T00:30:44;7.6;63.4
78448;SHT31;67742;51.972;5.682;2024-01-27T00:33:12;7.6;63.4
78448;SHT31;67742;51.972;5.682;2024-01-27T00:35:41;7.5;63.5
78448;SHT31;67742;51.972;5.682;2024-01-27T00:38:10;7.5;63.6
78448;SHT31;67742;51.972;5.682;2024-01-27T00:40:38;7.5;63.6
78448;SHT31;67742;51.972;5.682;2024-01-27T00:43:06;7.5;63.7
78448;SHT31;67742;51.972;5.682;2024-01-27T00:45:35;7.5;63.6
78448;SHT31;67742;51.972;5.682;2024-01-27T00:48:06;7.5;63.6
78448;SHT31;67742;51.972;5.682;2024-01-27T00:50:35;7.5;63.5
78448;SHT31;67742;51.972;5.682;2024-01-27T00:53:03;7.5;63.6
78448;SHT31;67742;51.972;5.682;2024-01-27T00:55:32;7.5;63.4
78448;SHT31;67742;51.972;5.682;2024-01-27T00:58:00;7.5;63.4
78448;SHT31;67742;51.972;5.682;2024-01-27T01:00:29;7.5;63.4
78448;SHT31;67742;51.972;5.682;2024-01-27T01:02:57;7.5;63.4
78448;SHT31;67742;51.972;5.682;2024-01-27T01:05:26;7.4;63.5
78448;SHT31;67742;51.972;5.682;2024-01-27T01:07:54;7.4;63.5
78448;SHT31;67742;51.972;5.682;2024-01-27T01:10:24;7.4;63.6
78448;SHT31;67742;51.972;5.682;2024-01-27T01:12:52;7.4;63.7
78448;SHT31;67742;51.972;5.682;2024-01-27T01:15:21;7.4;63.8
78448;SHT31;67742;51.972;5.682;2024-01-27T01:17:51;7.5;63.7
78448;SHT31;67742;51.972;5.682;2024-01-27T01:20:20;7.5;63.5
78448;SHT31;67742;51.972;5.682;2024-01-27T01:22:49;7.5;63.3
78448;SHT31;67742;51.972;5.682;2024-01-27T01:25:18;7.6;63.2
78448;SHT31;67742;51.972;5.682;2024-01-27T01:27:47;7.6;62.9
78448;SHT31;67742;51.972;5.682;2024-01-27T01:30:16;7.6;62.9
78448;SHT31;67742;51.972;5.682;2024-01-27T01:32:45;7.6;62.9
78448;SHT31;67742;51.972;5.682;2024-01-27T01:35:14;7.6;62.7
78448;SHT31;67742;51.972;5.682;2024-01-27T01:37:42;7.6;62.7
78448;SHT31;67742;51.972;5.682;2024-01-27T01:40:11;7.5;62.7
78448;SHT31;67742;51.972;5.682;2024-01-27T01:42:41;7.5;62.9
78448;SHT31;67742;51.972;5.682;2024-01-27T01:45:11;7.5;63.0
78448;SHT31;67742;51.972;5.682;2024-01-27T01:47:41;7.5;63.1
78448;SHT31;67742;51.972;5.682;2024-01-27T01:50:13;7.5;63.0
78448;SHT31;67742;51.972;5.682;2024-01-27T01:52:42;7.4;63.1
78448;SHT31;67742;51.972;5.682;2024-01-27T01:55:11;7.4;63.2
78448;SHT31;67742;51.972;5.682;2024-01-27T01:57:40;7.4;63.1
78448;SHT31;67742;51.972;5.682;2024-01-27T02:00:12;7.4;63.0
78448;SHT31;67742;51.972;5.682;2024-01-27T02:02:43;7.4;63.0
78448;SHT31;67742;51.972;5.682;2024-01-27T02:05:12;7.4;63.0
78448;SHT31;67742;51.972;5.682;2024-01-27T02:07:40;7.3;63.3
78448;SHT31;67742;51.972;5.682;2024-01-27T02:10:14;7.3;63.3
78448;SHT31;67742;51.972;5.682;2024-01-27T02:12:43;7.3;63.3
78448;SHT31;67742;51.972;5.682;2024-01-27T02:15:13;7.3;63.3
78448;SHT31;67742;51.972;5.682;2024-01-27T02:17:41;7.3;63.2
78448;SHT31;67742;51.972;5.682;2024-01-27T02:20:10;7.3;63.2
78448;SHT31;67742;51.972;5.682;2024-01-27T02:22:38;7.3;63.3
78448;SHT31;67742;51.972;5.682;2024-01-27T02:25:07;7.2;63.2
78448;SHT31;67742;51.972;5.682;2024-01-27T02:27:36;7.2;63.2
78448;SHT31;67742;51.972;5.682;2024-01-27T02:30:06;7.2;63.3
78448;SHT31;67742;51.972;5.682;2024-01-27T02:32:34;7.2;63.3
78448;SHT31;67742;51.972;5.682;2024-01-27T02:35:03;7.2;63.3
78448;SHT31;67742;51.972;5.682;2024-01-27T02:37:32;7.2;63.3
78448;SHT31;67742;51.972;5.682;2024-01-27T02:40:00;7.2;63.2
78448;SHT31;67742;51.972;5.682;2024-01-27T02:42:29;7.1;63.3
78448;SHT31;67742;51.972;5.682;2024-01-27T02:44:58;7.1;63.5
78448;SHT31;67742;51.972;5.682;2024-01-27T02:47:27;7.1;63.5
78448;SHT31;67742;51.972;5.682;2024-01-27T02:49:55;7.1;63.5
78448;SHT31;67742;51.972;5.682;2024-01-27T02:52:24;7.1;63.5
78448;SHT31;67742;51.972;5.682;2024-01-27T02:54:54;7.1;63.6
78448;SHT31;67742;51.972;5.682;2024-01-27T02:57:23;7.1;63.5
78448;SHT31;67742;51.972;5.682;2024-01-27T02:59:52;7.1;63.5
78448;SHT31;67742;51.972;5.682;2024-01-27T03:02:21;7.1;63.5
78448;SHT31;67742;51.972;5.682;2024-01-27T03:04:49;7.1;63.5
78448;SHT31;67742;51.972;5.682;2024-01-27T03:07:18;7.0;63.5
78448;SHT31;67742;51.972;5.682;2024-01-27T03:09:46;7.0;63.6
78448;SHT31;67742;51.972;5.682;2024-01-27T03:12:15;7.0;63.6
78448;SHT31;67742;51.972;5.682;2024-01-27T03:14:44;7.0;63.6
78448;SHT31;67742;51.972;5.682;2024-01-27T03:17:14;7.0;63.5
78448;SHT31;67742;51.972;5.682;2024-01-27T03:19:43;7.0;63.6
78448;SHT31;67742;51.972;5.682;2024-01-27T03:22:11;7.0;63.5
78448;SHT31;67742;51.972;5.682;2024-01-27T03:24:40;7.0;63.5
78448;SHT31;67742;51.972;5.682;2024-01-27T03:27:08;7.0;63.6
78448;SHT31;67742;51.972;5.682;2024-01-27T03:29:37;6.9;63.7
78448;SHT31;67742;51.972;5.682;2024-01-27T03:32:07;6.9;63.9
78448;SHT31;67742;51.972;5.682;2024-01-27T03:34:37;6.9;63.9
78448;SHT31;67742;51.972;5.682;2024-01-27T03:37:09;6.9;63.8
78448;SHT31;67742;51.972;5.682;2024-01-27T03:39:40;6.9;63.9
78448;SHT31;67742;51.972;5.682;2024-01-27T03:42:09;6.9;63.9
78448;SHT31;67742;51.972;5.682;2024-01-27T03:44:38;6.9;63.8
78448;SHT31;67742;51.972;5.682;2024-01-27T03:47:06;6.9;63.8
78448;SHT31;67742;51.972;5.682;2024-01-27T03:49:35;6.9;63.8
78448;SHT31;67742;51.972;5.682;2024-01-27T03:52:04;6.9;63.8
78448;SHT31;67742;51.972;5.682;2024-01-27T03:54:33;6.9;63.9
78448;SHT31;67742;51.972;5.682;2024-01-27T03:57:01;6.9;63.8
78448;SHT31;67742;51.972;5.682;2024-01-27T03:59:30;6.9;63.9
78448;SHT31;67742;51.972;5.682;2024-01-27T04:01:58;6.8;64.0
78448;SHT31;67742;51.972;5.682;2024-01-27T04:04:27;6.8;63.8
78448;SHT31;67742;51.972;5.682;2024-01-27T04:06:55;6.8;63.8
78448;SHT31;67742;51.972;5.682;2024-01-27T04:09:24;6.8;63.8
78448;SHT31;67742;51.972;5.682;2024-01-27T04:11:53;6.8;63.9
78448;SHT31;67742;51.972;5.682;2024-01-27T04:14:21;6.8;64.0
78448;SHT31;67742;51.972;5.682;2024-01-27T04:16:50;6.8;63.9
78448;SHT31;67742;51.972;5.682;2024-01-27T04:19:19;6.8;63.9
78448;SHT31;67742;51.972;5.682;2024-01-27T04:21:47;6.8;64.1
78448;SHT31;67742;51.972;5.682;2024-01-27T04:24:16;6.8;64.3
78448;SHT31;67742;51.972;5.682;2024-01-27T04:26:44;6.8;64.4
78448;SHT31;67742;51.972;5.682;2024-01-27T04:29:13;6.8;64.2
78448;SHT31;67742;51.972;5.682;2024-01-27T04:31:41;6.8;64.1
78448;SHT31;67742;51.972;5.682;2024-01-27T04:34:10;6.8;64.0
78448;SHT31;67742;51.972;5.682;2024-01-27T04:36:39;6.8;63.8
78448;SHT31;67742;51.972;5.682;2024-01-27T04:39:07;6.8;63.7
78448;SHT31;67742;51.972;5.682;2024-01-27T04:41:41;6.8;63.7
78448;SHT31;67742;51.972;5.682;2024-01-27T04:44:10;6.8;63.7
78448;SHT31;67742;51.972;5.682;2024-01-27T04:46:38;6.8;63.8
78448;SHT31;67742;51.972;5.682;2024-01-27T04:49:07;6.8;63.6
78448;SHT31;67742;51.972;5.682;2024-01-27T04:51:36;6.8;63.6
78448;SHT31;67742;51.972;5.682;2024-01-27T04:54:04;6.8;63.6
78448;SHT31;67742;51.972;5.682;2024-01-27T04:56:33;6.8;63.6
78448;SHT31;67742;51.972;5.682;2024-01-27T04:59:03;6.9;63.7
78448;SHT31;67742;51.972;5.682;2024-01-27T05:01:31;6.9;63.7
78448;SHT31;67742;51.972;5.682;2024-01-27T05:04:00;6.9;63.5
78448;SHT31;67742;51.972;5.682;2024-01-27T05:06:28;6.9;63.3
78448;SHT31;67742;51.972;5.682;2024-01-27T05:08:57;6.9;63.4
78448;SHT31;67742;51.972;5.682;2024-01-27T05:11:29;6.8;63.4
78448;SHT31;67742;51.972;5.682;2024-01-27T05:14:00;6.8;63.4
78448;SHT31;67742;51.972;5.682;2024-01-27T05:16:29;6.8;63.4
78448;SHT31;67742;51.972;5.682;2024-01-27T05:18:58;6.8;63.5
78448;SHT31;67742;51.972;5.682;2024-01-27T05:21:26;6.8;63.6
78448;SHT31;67742;51.972;5.682;2024-01-27T05:23:55;6.8;63.5
78448;SHT31;67742;51.972;5.682;2024-01-27T05:26:23;6.8;63.6
78448;SHT31;67742;51.972;5.682;2024-01-27T05:28:52;6.7;63.7
78448;SHT31;67742;51.972;5.682;2024-01-27T05:31:21;6.7;64.0
78448;SHT31;67742;51.972;5.682;2024-01-27T05:33:52;6.7;64.2
78448;SHT31;67742;51.972;5.682;2024-01-27T05:36:21;6.7;64.1
78448;SHT31;67742;51.972;5.682;2024-01-27T05:38:49;6.7;64.2
78448;SHT31;67742;51.972;5.682;2024-01-27T05:41:18;6.7;64.4
78448;SHT31;67742;51.972;5.682;2024-01-27T05:43:46;6.7;64.3
78448;SHT31;67742;51.972;5.682;2024-01-27T05:46:17;6.6;64.5
78448;SHT31;67742;51.972;5.682;2024-01-27T05:48:45;6.6;64.4
78448;SHT31;67742;51.972;5.682;2024-01-27T05:51:14;6.6;64.6
78448;SHT31;67742;51.972;5.682;2024-01-27T05:53:42;6.6;64.7
78448;SHT31;67742;51.972;5.682;2024-01-27T05:56:10;6.6;64.7
78448;SHT31;67742;51.972;5.682;2024-01-27T05:58:39;6.6;64.7
78448;SHT31;67742;51.972;5.682;2024-01-27T06:01:08;6.6;64.5
78448;SHT31;67742;51.972;5.682;2024-01-27T06:03:36;6.6;64.4
78448;SHT31;67742;51.972;5.682;2024-01-27T06:06:05;6.6;64.4
78448;SHT31;67742;51.972;5.682;2024-01-27T06:08:33;6.6;64.5
78448;SHT31;67742;51.972;5.682;2024-01-27T06:11:02;6.6;64.4
78448;SHT31;67742;51.972;5.682;2024-01-27T06:13:31;6.6;64.2
78448;SHT31;67742;51.972;5.682;2024-01-27T06:16:01;6.6;64.0
78448;SHT31;67742;51.972;5.682;2024-01-27T06:18:29;6.6;63.8
78448;SHT31;67742;51.972;5.682;2024-01-27T06:20:57;6.6;63.7
78448;SHT31;67742;51.972;5.682;2024-01-27T06:23:26;6.6;63.4
78448;SHT31;67742;51.972;5.682;2024-01-27T06:25:56;6.6;63.3
78448;SHT31;67742;51.972;5.682;2024-01-27T06:28:25;6.6;63.1
78448;SHT31;67742;51.972;5.682;2024-01-27T06:30:54;6.6;63.2
78448;SHT31;67742;51.972;5.682;2024-01-27T06:33:26;6.6;63.3
78448;SHT31;67742;51.972;5.682;2024-01-27T06:35:55;6.6;63.4
78448;SHT31;67742;51.972;5.682;2024-01-27T06:38:24;6.6;63.3
78448;SHT31;67742;51.972;5.682;2024-01-27T06:40:52;6.6;63.3
78448;SHT31;67742;51.972;5.682;2024-01-27T06:43:21;6.6;63.1
78448;SHT31;67742;51.972;5.682;2024-01-27T06:45:50;6.5;63.1
78448;SHT31;67742;51.972;5.682;2024-01-27T06:48:19;6.5;63.1
78448;SHT31;67742;51.972;5.682;2024-01-27T06:50:47;6.5;63.1
78448;SHT31;67742;51.972;5.682;2024-01-27T06:53:15;6.5;63.1
78448;SHT31;67742;51.972;5.682;2024-01-27T06:55:44;6.5;63.3
78448;SHT31;67742;51.972;5.682;2024-01-27T06:58:12;6.5;63.2
78448;SHT31;67742;51.972;5.682;2024-01-27T07:00:41;6.5;63.1
78448;SHT31;67742;51.972;5.682;2024-01-27T07:03:11;6.5;62.9
78448;SHT31;67742;51.972;5.682;2024-01-27T07:05:39;6.5;62.7
78448;SHT31;67742;51.972;5.682;2024-01-27T07:08:08;6.5;62.6
78448;SHT31;67742;51.972;5.682;2024-01-27T07:10:39;6.4;62.6
78448;SHT31;67742;51.972;5.682;2024-01-27T07:13:07;6.4;62.5
78448;SHT31;67742;51.972;5.682;2024-01-27T07:15:36;6.4;62.5
78448;SHT31;67742;51.972;5.682;2024-01-27T07:18:05;6.4;62.5
78448;SHT31;67742;51.972;5.682;2024-01-27T07:20:35;6.4;62.6
78448;SHT31;67742;51.972;5.682;2024-01-27T07:23:04;6.4;62.7
78448;SHT31;67742;51.972;5.682;2024-01-27T07:25:32;6.4;62.8
78448;SHT31;67742;51.972;5.682;2024-01-27T07:28:01;6.3;62.9
78448;SHT31;67742;51.972;5.682;2024-01-27T07:30:29;6.3;63.1
78448;SHT31;67742;51.972;5.682;2024-01-27T07:32:58;6.3;63.2
78448;SHT31;67742;51.972;5.682;2024-01-27T07:35:26;6.3;63.4
78448;SHT31;67742;51.972;5.682;2024-01-27T07:37:55;6.3;63.4
78448;SHT31;67742;51.972;5.682;2024-01-27T07:40:24;6.3;63.5
78448;SHT31;67742;51.972;5.682;2024-01-27T07:42:52;6.3;63.4
78448;SHT31;67742;51.972;5.682;2024-01-27T07:45:21;6.3;63.4
78448;SHT31;67742;51.972;5.682;2024-01-27T07:47:49;6.3;63.7
78448;SHT31;67742;51.972;5.682;2024-01-27T07:50:18;6.2;63.9
78448;SHT31;67742;51.972;5.682;2024-01-27T07:52:46;6.2;64.1
78448;SHT31;67742;51.972;5.682;2024-01-27T07:55:15;6.2;64.2
78448;SHT31;67742;51.972;5.682;2024-01-27T07:57:44;6.2;64.4
78448;SHT31;67742;51.972;5.682;2024-01-27T08:00:13;6.2;64.6
78448;SHT31;67742;51.972;5.682;2024-01-27T08:02:41;6.2;64.7
78448;SHT31;67742;51.972;5.682;2024-01-27T08:05:10;6.2;64.8
78448;SHT31;67742;51.972;5.682;2024-01-27T08:07:39;6.2;65.0
78448;SHT31;67742;51.972;5.682;2024-01-27T08:10:08;6.2;65.1
78448;SHT31;67742;51.972;5.682;2024-01-27T08:12:37;6.1;65.2
78448;SHT31;67742;51.972;5.682;2024-01-27T08:15:07;6.1;65.3
78448;SHT31;67742;51.972;5.682;2024-01-27T08:17:36;6.1;65.5
78448;SHT31;67742;51.972;5.682;2024-01-27T08:20:05;6.1;65.6
78448;SHT31;67742;51.972;5.682;2024-01-27T08:22:35;6.1;65.7
78448;SHT31;67742;51.972;5.682;2024-01-27T08:25:03;6.2;65.7
78448;SHT31;67742;51.972;5.682;2024-01-27T08:27:32;6.2;65.8
78448;SHT31;67742;51.972;5.682;2024-01-27T08:30:01;6.2;65.8
78448;SHT31;67742;51.972;5.682;2024-01-27T08:32:29;6.2;65.9
78448;SHT31;67742;51.972;5.682;2024-01-27T08:34:58;6.2;66.0
78448;SHT31;67742;51.972;5.682;2024-01-27T08:37:26;6.2;66.0
78448;SHT31;67742;51.972;5.682;2024-01-27T08:39:55;6.2;66.0
78448;SHT31;67742;51.972;5.682;2024-01-27T08:42:23;6.3;66.0
78448;SHT31;67742;51.972;5.682;2024-01-27T08:44:52;6.3;65.8
78448;SHT31;67742;51.972;5.682;2024-01-27T08:47:20;6.3;65.7
78448;SHT31;67742;51.972;5.682;2024-01-27T08:49:48;6.3;65.6
78448;SHT31;67742;51.972;5.682;2024-01-27T08:52:17;6.3;65.6
78448;SHT31;67742;51.972;5.682;2024-01-27T08:54:46;6.3;65.6
78448;SHT31;67742;51.972;5.682;2024-01-27T08:57:14;6.3;65.8
78448;SHT31;67742;51.972;5.682;2024-01-27T08:59:43;6.4;66.0
78448;SHT31;67742;51.972;5.682;2024-01-27T09:02:11;6.4;65.9
78448;SHT31;67742;51.972;5.682;2024-01-27T09:04:40;6.4;66.0
78448;SHT31;67742;51.972;5.682;2024-01-27T09:07:08;6.4;66.1
78448;SHT31;67742;51.972;5.682;2024-01-27T09:09:37;6.5;66.1
78448;SHT31;67742;51.972;5.682;2024-01-27T09:12:06;6.5;66.2
78448;SHT31;67742;51.972;5.682;2024-01-27T09:14:35;6.5;66.2
78448;SHT31;67742;51.972;5.682;2024-01-27T09:17:03;6.6;66.2
78448;SHT31;67742;51.972;5.682;2024-01-27T09:19:34;6.6;66.2
78448;SHT31;67742;51.972;5.682;2024-01-27T09:22:03;6.6;66.4
78448;SHT31;67742;51.972;5.682;2024-01-27T09:24:32;6.6;66.3
78448;SHT31;67742;51.972;5.682;2024-01-27T09:27:01;6.7;66.2
78448;SHT31;67742;51.972;5.682;2024-01-27T09:29:30;6.7;66.2
78448;SHT31;67742;51.972;5.682;2024-01-27T09:32:00;6.7;66.3
78448;SHT31;67742;51.972;5.682;2024-01-27T09:34:28;6.7;66.1
78448;SHT31;67742;51.972;5.682;2024-01-27T09:36:57;6.7;66.1
78448;SHT31;67742;51.972;5.682;2024-01-27T09:39:27;6.8;66.0
78448;SHT31;67742;51.972;5.682;2024-01-27T09:41:56;6.8;66.0
78448;SHT31;67742;51.972;5.682;2024-01-27T09:44:28;6.8;66.1
78448;SHT31;67742;51.972;5.682;2024-01-27T09:46:56;6.9;66.2
78448;SHT31;67742;51.972;5.682;2024-01-27T09:49:26;6.9;66.2
78448;SHT31;67742;51.972;5.682;2024-01-27T09:51:55;6.9;66.3
78448;SHT31;67742;51.972;5.682;2024-01-27T09:54:24;6.9;66.3
78448;SHT31;67742;51.972;5.682;2024-01-27T09:56:54;7.0;66.2
78448;SHT31;67742;51.972;5.682;2024-01-27T09:59:25;7.0;66.3
78448;SHT31;67742;51.972;5.682;2024-01-27T10:01:56;7.0;66.2
78448;SHT31;67742;51.972;5.682;2024-01-27T10:04:27;7.1;66.0
78448;SHT31;67742;51.972;5.682;2024-01-27T10:06:58;7.1;65.9
78448;SHT31;67742;51.972;5.682;2024-01-27T10:09:26;7.1;66.0
78448;SHT31;67742;51.972;5.682;2024-01-27T10:11:55;7.1;65.9
78448;SHT31;67742;51.972;5.682;2024-01-27T10:14:26;7.1;65.9
78448;SHT31;67742;51.972;5.682;2024-01-27T10:17:02;7.1;65.8
78448;SHT31;67742;51.972;5.682;2024-01-27T10:19:30;7.1;65.9
78448;SHT31;67742;51.972;5.682;2024-01-27T10:22:01;7.1;65.9
78448;SHT31;67742;51.972;5.682;2024-01-27T10:24:33;7.1;65.9
78448;SHT31;67742;51.972;5.682;2024-01-27T10:27:02;7.1;66.0
78448;SHT31;67742;51.972;5.682;2024-01-27T10:29:31;7.1;65.9
78448;SHT31;67742;51.972;5.682;2024-01-27T10:32:09;7.2;66.0
78448;SHT31;67742;51.972;5.682;2024-01-27T10:34:37;7.2;65.8
78448;SHT31;67742;51.972;5.682;2024-01-27T10:37:06;7.2;65.8
78448;SHT31;67742;51.972;5.682;2024-01-27T10:39:34;7.2;65.9
78448;SHT31;67742;51.972;5.682;2024-01-27T10:42:03;7.2;65.7
78448;SHT31;67742;51.972;5.682;2024-01-27T10:44:38;7.3;65.9
78448;SHT31;67742;51.972;5.682;2024-01-27T10:47:15;7.3;66.1
78448;SHT31;67742;51.972;5.682;2024-01-27T10:49:48;7.3;66.4
78448;SHT31;67742;51.972;5.682;2024-01-27T10:52:18;7.3;66.2
78448;SHT31;67742;51.972;5.682;2024-01-27T10:54:51;7.4;66.5
78448;SHT31;67742;51.972;5.682;2024-01-27T10:57:21;7.4;66.6
78448;SHT31;67742;51.972;5.682;2024-01-27T10:59:50;7.4;66.5
78448;SHT31;67742;51.972;5.682;2024-01-27T11:02:24;7.5;66.4
78448;SHT31;67742;51.972;5.682;2024-01-27T11:04:53;7.5;66.5
78448;SHT31;67742;51.972;5.682;2024-01-27T11:07:23;7.6;66.4
78448;SHT31;67742;51.972;5.682;2024-01-27T11:09:53;7.6;66.3
78448;SHT31;67742;51.972;5.682;2024-01-27T11:12:26;7.7;66.5
78448;SHT31;67742;51.972;5.682;2024-01-27T11:14:55;7.7;66.3
78448;SHT31;67742;51.972;5.682;2024-01-27T11:17:27;7.8;66.4
78448;SHT31;67742;51.972;5.682;2024-01-27T11:19:57;7.8;66.5
78448;SHT31;67742;51.972;5.682;2024-01-27T11:22:27;7.9;66.5
78448;SHT31;67742;51.972;5.682;2024-01-27T11:25:07;7.9;66.4
78448;SHT31;67742;51.972;5.682;2024-01-27T11:27:35;8.0;66.0
78448;SHT31;67742;51.972;5.682;2024-01-27T11:30:05;8.0;65.9
78448;SHT31;67742;51.972;5.682;2024-01-27T11:32:38;8.1;66.1
78448;SHT31;67742;51.972;5.682;2024-01-27T11:35:07;8.1;66.2
78448;SHT31;67742;51.972;5.682;2024-01-27T11:37:36;8.2;65.7
78448;SHT31;67742;51.972;5.682;2024-01-27T11:40:07;8.2;65.5
78448;SHT31;67742;51.972;5.682;2024-01-27T11:42:36;8.2;65.2
78448;SHT31;67742;51.972;5.682;2024-01-27T11:45:07;8.3;65.1
78448;SHT31;67742;51.972;5.682;2024-01-27T11:47:36;8.3;65.4
78448;SHT31;67742;51.972;5.682;2024-01-27T11:50:05;8.4;65.5
78448;SHT31;67742;51.972;5.682;2024-01-27T11:52:34;8.4;65.2
78448;SHT31;67742;51.972;5.682;2024-01-27T11:55:06;8.4;64.8
78448;SHT31;67742;51.972;5.682;2024-01-27T11:57:35;8.5;64.8
78448;SHT31;67742;51.972;5.682;2024-01-27T12:00:04;8.5;64.8
78448;SHT31;67742;51.972;5.682;2024-01-27T12:02:35;8.6;64.6
78448;SHT31;67742;51.972;5.682;2024-01-27T12:05:04;8.6;64.2
78448;SHT31;67742;51.972;5.682;2024-01-27T12:07:34;8.6;64.2
78448;SHT31;67742;51.972;5.682;2024-01-27T12:10:03;8.7;64.1
78448;SHT31;67742;51.972;5.682;2024-01-27T12:12:34;8.7;63.9
78448;SHT31;67742;51.972;5.682;2024-01-27T12:15:06;8.8;64.0
78448;SHT31;67742;51.972;5.682;2024-01-27T12:17:35;8.9;63.8
78448;SHT31;67742;51.972;5.682;2024-01-27T12:20:15;8.9;63.5
78448;SHT31;67742;51.972;5.682;2024-01-27T12:22:44;9.0;63.1
78448;SHT31;67742;51.972;5.682;2024-01-27T12:25:13;9.1;63.0
78448;SHT31;67742;51.972;5.682;2024-01-27T12:27:43;9.2;62.1
78448;SHT31;67742;51.972;5.682;2024-01-27T12:30:14;9.2;61.2
78448;SHT31;67742;51.972;5.682;2024-01-27T12:32:43;9.3;60.7
78448;SHT31;67742;51.972;5.682;2024-01-27T12:35:12;9.3;60.8
78448;SHT31;67742;51.972;5.682;2024-01-27T12:37:43;9.3;60.9
78448;SHT31;67742;51.972;5.682;2024-01-27T12:40:19;9.3;60.6
78448;SHT31;67742;51.972;5.682;2024-01-27T12:42:48;9.3;60.8
78448;SHT31;67742;51.972;5.682;2024-01-27T12:45:16;9.3;60.6
78448;SHT31;67742;51.972;5.682;2024-01-27T12:47:45;9.3;61.0
78448;SHT31;67742;51.972;5.682;2024-01-27T12:50:14;9.4;61.4
78448;SHT31;67742;51.972;5.682;2024-01-27T12:52:42;9.4;60.7
78448;SHT31;67742;51.972;5.682;2024-01-27T12:55:11;9.4;60.7
78448;SHT31;67742;51.972;5.682;2024-01-27T12:57:39;9.4;60.6
78448;SHT31;67742;51.972;5.682;2024-01-27T13:00:09;9.4;60.7
78448;SHT31;67742;51.972;5.682;2024-01-27T13:02:39;9.4;60.7
78448;SHT31;67742;51.972;5.682;2024-01-27T13:05:08;9.4;60.8
78448;SHT31;67742;51.972;5.682;2024-01-27T13:07:37;9.4;60.7
78448;SHT31;67742;51.972;5.682;2024-01-27T13:10:06;9.4;60.8
78448;SHT31;67742;51.972;5.682;2024-01-27T13:12:36;9.4;61.3
78448;SHT31;67742;51.972;5.682;2024-01-27T13:15:05;9.4;60.6
78448;SHT31;67742;51.972;5.682;2024-01-27T13:17:34;9.4;60.9
78448;SHT31;67742;51.972;5.682;2024-01-27T13:20:02;9.4;61.0
78448;SHT31;67742;51.972;5.682;2024-01-27T13:22:32;9.5;60.6
78448;SHT31;67742;51.972;5.682;2024-01-27T13:25:00;9.5;60.9
78448;SHT31;67742;51.972;5.682;2024-01-27T13:27:32;9.5;60.9
78448;SHT31;67742;51.972;5.682;2024-01-27T13:30:01;9.5;60.6
78448;SHT31;67742;51.972;5.682;2024-01-27T13:32:29;9.5;60.9
78448;SHT31;67742;51.972;5.682;2024-01-27T13:34:58;9.5;60.0
78448;SHT31;67742;51.972;5.682;2024-01-27T13:37:26;9.5;60.8
78448;SHT31;67742;51.972;5.682;2024-01-27T13:39:59;9.6;60.7
78448;SHT31;67742;51.972;5.682;2024-01-27T13:42:29;9.6;60.5
78448;SHT31;67742;51.972;5.682;2024-01-27T13:44:57;9.6;60.5
78448;SHT31;67742;51.972;5.682;2024-01-27T13:47:26;9.6;60.3
78448;SHT31;67742;51.972;5.682;2024-01-27T13:49:54;9.6;59.7
78448;SHT31;67742;51.972;5.682;2024-01-27T13:52:26;9.6;59.4
78448;SHT31;67742;51.972;5.682;2024-01-27T13:54:55;9.6;58.8
78448;SHT31;67742;51.972;5.682;2024-01-27T13:57:23;9.6;58.6
78448;SHT31;67742;51.972;5.682;2024-01-27T13:59:53;9.6;58.5
78448;SHT31;67742;51.972;5.682;2024-01-27T14:02:21;9.6;58.4
78448;SHT31;67742;51.972;5.682;2024-01-27T14:04:53;9.7;58.4
78448;SHT31;67742;51.972;5.682;2024-01-27T14:07:24;9.7;58.8
78448;SHT31;67742;51.972;5.682;2024-01-27T14:09:52;9.7;58.3
78448;SHT31;67742;51.972;5.682;2024-01-27T14:12:21;9.7;58.6
78448;SHT31;67742;51.972;5.682;2024-01-27T14:14:50;9.7;58.3
78448;SHT31;67742;51.972;5.682;2024-01-27T14:17:19;9.7;58.5
78448;SHT31;67742;51.972;5.682;2024-01-27T14:19:48;9.7;58.2
78448;SHT31;67742;51.972;5.682;2024-01-27T14:22:16;9.7;58.0
78448;SHT31;67742;51.972;5.682;2024-01-27T14:24:45;9.7;57.5
78448;SHT31;67742;51.972;5.682;2024-01-27T14:27:13;9.7;57.9
78448;SHT31;67742;51.972;5.682;2024-01-27T14:29:44;9.7;57.5
78448;SHT31;67742;51.972;5.682;2024-01-27T14:32:12;9.7;57.9
78448;SHT31;67742;51.972;5.682;2024-01-27T14:34:41;9.7;57.9
78448;SHT31;67742;51.972;5.682;2024-01-27T14:37:09;9.7;57.9
78448;SHT31;67742;51.972;5.682;2024-01-27T14:39:39;9.7;58.3
78448;SHT31;67742;51.972;5.682;2024-01-27T14:42:10;9.7;58.5
78448;SHT31;67742;51.972;5.682;2024-01-27T14:44:39;9.7;58.4
78448;SHT31;67742;51.972;5.682;2024-01-27T14:47:08;9.7;58.3
78448;SHT31;67742;51.972;5.682;2024-01-27T14:49:37;9.7;58.7
78448;SHT31;67742;51.972;5.682;2024-01-27T14:52:07;9.7;58.6
78448;SHT31;67742;51.972;5.682;2024-01-27T14:54:35;9.7;58.7
78448;SHT31;67742;51.972;5.682;2024-01-27T14:57:05;9.7;58.7
78448;SHT31;67742;51.972;5.682;2024-01-27T14:59:37;9.7;58.8
78448;SHT31;67742;51.972;5.682;2024-01-27T15:02:06;9.7;58.5
78448;SHT31;67742;51.972;5.682;2024-01-27T15:04:36;9.7;58.9
78448;SHT31;67742;51.972;5.682;2024-01-27T15:07:06;9.7;58.7
78448;SHT31;67742;51.972;5.682;2024-01-27T15:09:37;9.7;59.0
78448;SHT31;67742;51.972;5.682;2024-01-27T15:12:07;9.7;58.9
78448;SHT31;67742;51.972;5.682;2024-01-27T15:14:35;9.7;59.0
78448;SHT31;67742;51.972;5.682;2024-01-27T15:17:04;9.7;59.0
78448;SHT31;67742;51.972;5.682;2024-01-27T15:19:34;9.7;59.0
78448;SHT31;67742;51.972;5.682;2024-01-27T15:22:03;9.7;59.0
78448;SHT31;67742;51.972;5.682;2024-01-27T15:24:33;9.7;59.0
78448;SHT31;67742;51.972;5.682;2024-01-27T15:27:04;9.8;59.0
78448;SHT31;67742;51.972;5.682;2024-01-27T15:29:34;9.8;59.1
78448;SHT31;67742;51.972;5.682;2024-01-27T15:32:03;9.8;59.0
78448;SHT31;67742;51.972;5.682;2024-01-27T15:34:33;9.8;59.3
78448;SHT31;67742;51.972;5.682;2024-01-27T15:37:02;9.8;59.3
78448;SHT31;67742;51.972;5.682;2024-01-27T15:39:30;9.8;59.7
78448;SHT31;67742;51.972;5.682;2024-01-27T15:41:59;9.8;59.6
78448;SHT31;67742;51.972;5.682;2024-01-27T15:44:30;9.8;59.8
78448;SHT31;67742;51.972;5.682;2024-01-27T15:46:59;9.8;59.5
78448;SHT31;67742;51.972;5.682;2024-01-27T15:49:27;9.8;59.4
78448;SHT31;67742;51.972;5.682;2024-01-27T15:51:56;9.8;60.2
78448;SHT31;67742;51.972;5.682;2024-01-27T15:54:27;9.9;59.4
78448;SHT31;67742;51.972;5.682;2024-01-27T15:56:55;9.9;59.4
78448;SHT31;67742;51.972;5.682;2024-01-27T15:59:24;9.9;59.7
78448;SHT31;67742;51.972;5.682;2024-01-27T16:01:52;9.9;59.6
78448;SHT31;67742;51.972;5.682;2024-01-27T16:04:22;10.0;59.3
78448;SHT31;67742;51.972;5.682;2024-01-27T16:06:51;10.0;59.4
78448;SHT31;67742;51.972;5.682;2024-01-27T16:09:19;10.0;59.4
78448;SHT31;67742;51.972;5.682;2024-01-27T16:11:48;10.0;59.1
78448;SHT31;67742;51.972;5.682;2024-01-27T16:14:17;9.9;59.1
78448;SHT31;67742;51.972;5.682;2024-01-27T16:16:45;9.9;59.2
78448;SHT31;67742;51.972;5.682;2024-01-27T16:19:14;9.9;59.1
78448;SHT31;67742;51.972;5.682;2024-01-27T16:21:42;9.9;59.1
78448;SHT31;67742;51.972;5.682;2024-01-27T16:24:11;9.9;59.3
78448;SHT31;67742;51.972;5.682;2024-01-27T16:26:39;9.8;59.3
78448;SHT31;67742;51.972;5.682;2024-01-27T16:29:08;9.8;59.2